Terminal Aerodrome Forecast
Issued by NWS Atlanta, GA

Current Version | Previous Version | Text Only | Print | Product List | Glossary On
Versions: 1 2 3 4 5 6 7 8 9 10 11 12 13 14 15 16 17 18 19 20 21 22
000
FTUS42 KFFC 302300
TAFCSG
TAF
KCSG 302320Z 3100/3124 34005KT P6SM SKC
     FM310200 33003KT P6SM SKC
     FM311400 32007KT P6SM FEW120
     FM312000 31010G17KT P6SM BKN100=

USA.gov is the U.S. government's official web portal to all federal, state and local government web resources and services.